Terminal Aerodrome Forecast
Issued by NWS

Home | Current Version | Previous Version | Graphics & Text | Print | Product List | Glossary On
Versions: 1 2 3 4 5 6 7 8 9 10 11 12 13 14 15 16 17
000
FTUS43 KUNR 111700
TAFGCC
TAF
KGCC 111732Z 1118/1218 04015KT P6SM VCTS BKN070CB
     FM111900 10007KT P6SM BKN150
     FM120000 16009KT P6SM BKN150
     FM121200 32009KT P6SM SCT050=

USA.gov is the U.S. government's official web portal to all federal, state and local government web resources and services.